Airfield :
LOGIN :

Register | Disclaimer

   EN    FR    IT 

 










Legend :    VFR   Marginal VFR   IFR   Intensive IFR   Very Intensive IFR
Visi :
Ceiling :
>= 8 km
>= 3000ft
5 to 8 km
1000 to 3000 ft
1500m to 5 km
500 to 1000 ft
800 to 1500m
200 to 500 ft
< 800m
< 200 ft
Symbols :   Thunderstorms  Fog  Heavy snow  Heavy precipitations  Wind > 20 kt
SIGMETs :     Misc.  Thunderstorms  Icing  Turbulence  Mountain Waves  Volcanic Ashes







- Airport Elevation : 461 ft
- IATA code : WIE


ETOU - Wiesbaden Army

CURRENT METAR :
  • 201656Z AUTO 00000KT 9999 CLR 21/07 A3025 RMK AO2 SLP243 T02070066 $

EXPIRED METARs :
  • 201556Z AUTO 00000KT 9999 CLR 21/06 A3023 RMK AO2 SLP236 T02080060 $
  • 201456Z AUTO 32004KT 9999 FEW170 FEW190 21/06 A3024 RMK AO2 SLP240 T02100057 50007 $

TAF TAF ETOU
Valid from the 20 at 11:00 until the 21 at 17:00 UTC


201100Z 2011/2117 30006KT 9999 SCT080 BKN200 QNH3020INS WND 09006KT AFT 2109 TX22/2015Z TN10/2103Z
No reported NOTAMs for that airfield.



MET'MAP, your aeronautical weather chart ! - Copyright ORBIFLY December 2007 - Disclaimer

ORBIFLY MET'MAP TEAM :

Programming & Development : Alexandra Zaïnal
Concept & Development : Baudouin d'Aumeries
Co-Development & Prog : Marc-Olivier Méhu
Technical & hardware support : Manuel Goepfert

Contact : metmap@orbifly.com




SOURCES & CREDITS :

   NOAA